Time;durP1;ratioP1;P1;durP2;ratioP2;P2;SDS_P1;SDS_P2;PMS_P1;PMS_P2;Temp;Humidity;BMP_temperature;BMP_pressure;BME280_temperature;BME280_humidity;BME280_pressure;Samples;Min_cycle;Max_cycle;Signal;HPM_P1;HPM_P2
2023/03/30 00:01:25;;;;;;;7.60;3.50;;;15.90;60.90;;;;;;5049516;28;20169;-88
2023/03/30 00:03:53;;;;;;;15.77;3.83;;;15.90;62.10;;;;;;5049324;28;20197;-83
2023/03/30 00:06:23;;;;;;;8.17;3.97;;;15.70;62.60;;;;;;5037969;28;20203;-88
2023/03/30 00:08:57;;;;;;;6.77;3.90;;;15.50;63.40;;;;;;5048332;28;20211;-86
2023/03/30 00:11:24;;;;;;;10.40;4.10;;;15.50;62.50;;;;;;5047537;28;20202;-86
2023/03/30 00:13:51;;;;;;;6.97;3.77;;;15.40;63.90;;;;;;5046641;28;20213;-86
2023/03/30 00:16:17;;;;;;;7.93;4.20;;;15.60;62.10;;;;;;5045561;28;20181;-87
2023/03/30 00:18:43;;;;;;;6.90;3.80;;;15.50;62.20;;;;;;5045827;28;20173;-87
2023/03/30 00:21:10;;;;;;;8.60;3.67;;;15.40;63.50;;;;;;5046827;28;20179;-86
2023/03/30 00:23:38;;;;;;;10.87;4.20;;;15.20;64.30;;;;;;5030295;28;20706;-86
2023/03/30 00:26:04;;;;;;;6.83;3.70;;;15.20;64.40;;;;;;5046114;28;20177;-85
2023/03/30 00:28:30;;;;;;;8.67;3.57;;;15.30;64.20;;;;;;5047940;28;20239;-86
2023/03/30 00:30:56;;;;;;;6.70;4.03;;;15.20;64.30;;;;;;5028574;28;20181;-86
2023/03/30 00:33:22;;;;;;;13.37;4.27;;;15.20;64.70;;;;;;5045645;28;20390;-85
2023/03/30 00:35:54;;;;;;;5.30;3.67;;;15.10;65.40;;;;;;5046375;28;20194;-86
2023/03/30 00:38:20;;;;;;;10.37;4.07;;;15.00;65.30;;;;;;5032324;28;20270;-86
2023/03/30 00:40:51;;;;;;;5.80;3.60;;;15.00;65.70;;;;;;5048904;28;20188;-86
2023/03/30 00:43:17;;;;;;;9.83;3.73;;;15.00;65.90;;;;;;5047468;28;20221;-86
2023/03/30 00:45:43;;;;;;;7.60;3.70;;;15.00;66.60;;;;;;5048517;28;20170;-87
2023/03/30 00:48:23;;;;;;;6.00;4.00;;;14.90;67.00;;;;;;5030361;28;20177;-86
2023/03/30 00:50:54;;;;;;;5.80;3.97;;;15.00;67.00;;;;;;5010637;28;20197;-86
2023/03/30 00:53:28;;;;;;;6.57;3.63;;;14.90;67.60;;;;;;5034698;28;20222;-86
2023/03/30 00:55:56;;;;;;;8.37;3.67;;;14.90;68.60;;;;;;5047521;28;20172;-85
2023/03/30 00:58:22;;;;;;;9.03;4.33;;;14.80;68.30;;;;;;5048145;28;20181;-87
2023/03/30 01:00:50;;;;;;;8.97;3.70;;;14.90;68.10;;;;;;5053239;28;20196;-84
2023/03/30 01:03:27;;;;;;;7.27;3.90;;;15.10;66.80;;;;;;5052471;28;20272;-89
2023/03/30 01:05:55;;;;;;;8.13;4.20;;;15.30;67.80;;;;;;5046020;28;20180;-88
2023/03/30 01:08:23;;;;;;;6.70;3.67;;;15.30;69.00;;;;;;5045217;28;20185;-86
2023/03/30 01:10:51;;;;;;;12.80;4.10;;;15.10;70.00;;;;;;5046094;28;20211;-86
2023/03/30 01:13:18;;;;;;;9.30;4.40;;;14.90;70.50;;;;;;5045205;28;20200;-87
2023/03/30 01:16:09;;;;;;;12.03;4.33;;;14.70;71.90;;;;;;5045283;28;20172;-88
2023/03/30 01:18:56;;;;;;;9.00;4.10;;;14.80;70.50;;;;;;5045943;28;20184;-87
2023/03/30 01:21:22;;;;;;;6.77;3.83;;;14.70;71.70;;;;;;5048010;28;20188;-86
2023/03/30 01:24:15;;;;;;;10.07;4.07;;;14.70;72.50;;;;;;5048442;28;20197;-87
2023/03/30 01:27:25;;;;;;;10.90;3.90;;;14.80;72.30;;;;;;5046714;28;20186;-87
2023/03/30 01:30:29;;;;;;;8.13;4.03;;;14.70;72.30;;;;;;5032325;28;20196;-86
2023/03/30 01:33:03;;;;;;;11.33;4.97;;;14.80;72.30;;;;;;5047071;28;20239;-86
2023/03/30 01:35:44;;;;;;;9.97;4.70;;;14.80;72.10;;;;;;5046270;28;20188;-86
2023/03/30 01:38:32;;;;;;;10.37;4.10;;;14.90;71.00;;;;;;5046660;28;20180;-86
2023/03/30 01:41:10;;;;;;;9.67;4.20;;;15.00;70.90;;;;;;5047277;28;20169;-86
2023/03/30 01:43:49;;;;;;;8.03;4.17;;;14.90;70.90;;;;;;5046941;28;20402;-87
2023/03/30 01:46:39;;;;;;;9.83;3.77;;;15.00;71.30;;;;;;5027679;28;20182;-86
2023/03/30 01:49:41;;;;;;;8.73;4.10;;;14.90;71.10;;;;;;5053745;28;20233;-87
2023/03/30 01:52:12;;;;;;;11.40;4.07;;;14.90;70.90;;;;;;5066742;28;20233;-86
2023/03/30 01:54:46;;;;;;;12.60;4.40;;;15.10;70.20;;;;;;5057713;28;20226;-85
2023/03/30 01:57:20;;;;;;;7.07;3.97;;;15.20;70.80;;;;;;5047932;28;20268;-88
2023/03/30 01:59:56;;;;;;;10.87;4.90;;;15.20;70.00;;;;;;5059304;28;20192;-85
2023/03/30 02:02:25;;;;;;;10.13;4.20;;;15.20;70.50;;;;;;5052503;28;20441;-86
2023/03/30 02:04:52;;;;;;;8.07;4.37;;;15.20;70.60;;;;;;5044594;28;20289;-84
2023/03/30 02:07:22;;;;;;;13.17;4.90;;;15.30;72.40;;;;;;5045453;28;20193;-86
2023/03/30 02:09:50;;;;;;;12.10;4.80;;;15.20;75.20;;;;;;5047160;28;20180;-86
2023/03/30 02:12:18;;;;;;;12.87;4.90;;;15.20;76.80;;;;;;5046033;28;20214;-84
2023/03/30 02:14:47;;;;;;;12.00;4.60;;;15.10;79.20;;;;;;5046278;28;20200;-86
2023/03/30 02:17:21;;;;;;;12.73;4.90;;;15.00;80.00;;;;;;5047441;28;20219;-86
2023/03/30 02:19:47;;;;;;;13.17;5.00;;;15.00;80.40;;;;;;5048253;28;20176;-87
2023/03/30 02:22:15;;;;;;;9.60;4.20;;;15.00;82.20;;;;;;5047161;28;20491;-85
2023/03/30 02:24:47;;;;;;;11.30;4.80;;;14.90;83.10;;;;;;5046515;28;20685;-86
2023/03/30 02:27:13;;;;;;;9.20;4.63;;;14.90;84.80;;;;;;5048086;28;20199;-85
2023/03/30 02:29:43;;;;;;;10.97;5.37;;;14.80;86.90;;;;;;5048263;28;20579;-85
2023/03/30 02:32:25;;;;;;;11.23;4.77;;;14.70;90.70;;;;;;5047662;28;20235;-85
2023/03/30 02:35:06;;;;;;;13.63;5.00;;;14.60;91.30;;;;;;5047988;28;20225;-86
2023/03/30 02:37:37;;;;;;;12.03;5.40;;;14.60;92.90;;;;;;5048618;28;20165;-87
2023/03/30 02:40:32;;;;;;;12.90;5.03;;;14.60;93.40;;;;;;5047262;28;20211;-88
2023/03/30 02:43:16;;;;;;;12.53;4.90;;;14.60;93.60;;;;;;5040816;28;20212;-87
2023/03/30 02:45:57;;;;;;;14.60;4.90;;;14.50;94.50;;;;;;5046140;28;20172;-85
2023/03/30 02:48:32;;;;;;;12.87;5.03;;;14.50;95.80;;;;;;5048074;28;20403;-86
2023/03/30 02:51:16;;;;;;;12.63;4.77;;;14.40;96.40;;;;;;5056468;28;20175;-86
2023/03/30 02:54:11;;;;;;;12.43;4.60;;;14.40;96.70;;;;;;5047005;28;20358;-86
2023/03/30 02:57:06;;;;;;;12.50;5.20;;;14.50;97.20;;;;;;5058743;28;20260;-86
2023/03/30 02:59:57;;;;;;;11.87;4.90;;;14.40;97.70;;;;;;5055584;28;20598;-88
2023/03/30 03:02:36;;;;;;;12.90;5.07;;;14.50;98.00;;;;;;5042052;28;20220;-87
2023/03/30 03:05:02;;;;;;;11.07;5.20;;;14.40;98.70;;;;;;5024012;28;20188;-86
2023/03/30 03:07:32;;;;;;;14.57;5.80;;;14.40;98.50;;;;;;5022838;28;20188;-85
2023/03/30 03:09:59;;;;;;;11.03;5.37;;;14.40;98.70;;;;;;5024498;28;20184;-85
2023/03/30 03:12:25;;;;;;;9.77;4.73;;;14.50;99.00;;;;;;5044019;28;20211;-86
2023/03/30 03:14:51;;;;;;;14.73;4.70;;;14.70;97.40;;;;;;5044258;28;20481;-85
2023/03/30 03:17:21;;;;;;;11.00;5.30;;;14.60;99.30;;;;;;5044366;28;20192;-87
2023/03/30 03:19:47;;;;;;;10.33;5.13;;;14.50;99.90;;;;;;5046707;28;20169;-87
2023/03/30 03:22:13;;;;;;;14.17;5.27;;;14.40;99.90;;;;;;5050351;28;20198;-87
2023/03/30 03:24:39;;;;;;;14.87;5.00;;;14.50;99.90;;;;;;5049678;28;20177;-84
2023/03/30 03:27:05;;;;;;;9.37;4.47;;;14.60;99.90;;;;;;5049730;28;20192;-87
2023/03/30 03:29:31;;;;;;;12.70;4.70;;;14.50;99.90;;;;;;5050420;28;20645;-84
2023/03/30 03:31:57;;;;;;;11.73;5.07;;;14.50;99.90;;;;;;5049210;28;20216;-85
2023/03/30 03:34:25;;;;;;;10.87;5.17;;;14.50;99.90;;;;;;5050877;28;20262;-85
2023/03/30 03:36:53;;;;;;;10.10;4.97;;;14.50;99.90;;;;;;5051212;28;20233;-87
2023/03/30 03:39:19;;;;;;;8.47;4.90;;;14.30;99.90;;;;;;5051066;28;20172;-87
2023/03/30 03:41:45;;;;;;;11.20;4.80;;;14.30;99.90;;;;;;5049410;28;20288;-89
2023/03/30 03:44:10;;;;;;;12.40;5.37;;;14.30;99.90;;;;;;5058044;28;20704;-85
2023/03/30 03:46:36;;;;;;;11.00;4.83;;;14.20;99.90;;;;;;5076740;28;20202;-87
2023/03/30 03:49:02;;;;;;;12.20;4.77;;;14.10;99.90;;;;;;5056035;28;20220;-89
2023/03/30 03:51:28;;;;;;;11.50;4.97;;;14.20;99.90;;;;;;5066509;28;20172;-88
2023/03/30 03:53:54;;;;;;;8.10;4.60;;;14.20;99.90;;;;;;5050719;28;20220;-86
2023/03/30 03:56:20;;;;;;;11.83;5.13;;;14.10;99.90;;;;;;5046856;28;20171;-87
2023/03/30 03:58:46;;;;;;;9.40;4.87;;;13.90;99.90;;;;;;5047308;28;20189;-87
2023/03/30 04:01:13;;;;;;;10.47;4.97;;;13.80;99.90;;;;;;5048340;28;20188;-86
2023/03/30 04:03:40;;;;;;;10.20;4.73;;;13.80;99.90;;;;;;5048174;28;20559;-87
2023/03/30 04:06:06;;;;;;;9.93;4.57;;;13.80;99.90;;;;;;5046271;28;20267;-86
2023/03/30 04:08:32;;;;;;;15.53;5.23;;;13.90;99.90;;;;;;5046684;28;20183;-85
2023/03/30 04:11:16;;;;;;;6.57;4.07;;;13.90;99.90;;;;;;5046813;28;20266;-86
2023/03/30 04:13:42;;;;;;;13.13;4.90;;;13.90;99.90;;;;;;5031970;28;20199;-84
2023/03/30 04:16:09;;;;;;;9.67;4.93;;;13.80;99.90;;;;;;5027574;28;20192;-85
2023/03/30 04:18:35;;;;;;;9.17;4.57;;;13.90;99.90;;;;;;5027148;28;20174;-86
2023/03/30 04:21:03;;;;;;;8.60;4.47;;;13.70;99.90;;;;;;5027593;28;20183;-87
2023/03/30 04:23:33;;;;;;;13.10;4.33;;;13.80;99.90;;;;;;5027998;28;20262;-84
2023/03/30 04:26:03;;;;;;;8.80;4.47;;;13.90;99.90;;;;;;5041477;28;20192;-88
2023/03/30 04:28:31;;;;;;;9.03;4.90;;;13.80;99.90;;;;;;5047934;28;20682;-87
2023/03/30 04:31:03;;;;;;;10.03;5.27;;;13.70;99.90;;;;;;5050213;28;20170;-85
2023/03/30 04:33:29;;;;;;;9.77;5.33;;;13.70;99.90;;;;;;5047839;28;20211;-84
2023/03/30 04:35:55;;;;;;;9.97;5.20;;;13.80;99.90;;;;;;5049103;28;20196;-85
2023/03/30 04:38:21;;;;;;;12.10;5.30;;;13.70;99.90;;;;;;5040920;28;20242;-85
2023/03/30 04:40:51;;;;;;;9.23;5.20;;;13.70;99.90;;;;;;5041731;28;20212;-85
2023/03/30 04:43:19;;;;;;;12.93;5.40;;;13.60;99.90;;;;;;5041492;28;20280;-84
2023/03/30 04:45:52;;;;;;;9.77;6.00;;;13.60;99.90;;;;;;5051351;28;20205;-85
2023/03/30 04:48:19;;;;;;;11.67;5.37;;;13.60;99.90;;;;;;5045889;28;20236;-87
2023/03/30 04:50:46;;;;;;;15.57;5.07;;;13.50;99.90;;;;;;5043252;28;20198;-86
2023/03/30 04:53:15;;;;;;;7.67;5.20;;;13.70;99.90;;;;;;5040838;28;20295;-87
2023/03/30 04:55:45;;;;;;;11.23;4.67;;;13.60;99.90;;;;;;5040226;28;20178;-83
2023/03/30 04:58:11;;;;;;;11.50;5.33;;;13.60;99.90;;;;;;5036343;28;20268;-83
2023/03/30 05:00:37;;;;;;;13.10;5.47;;;13.60;99.90;;;;;;5020802;28;20709;-86
2023/03/30 05:03:03;;;;;;;8.47;4.93;;;13.50;99.90;;;;;;5048826;28;20197;-86
2023/03/30 05:05:29;;;;;;;17.33;14.23;;;13.50;99.90;;;;;;5048220;28;20181;-85
2023/03/30 05:07:55;;;;;;;8.07;5.60;;;13.60;99.90;;;;;;5047207;28;20234;-85
2023/03/30 05:10:21;;;;;;;8.90;4.53;;;13.60;99.90;;;;;;5045489;28;20183;-86
2023/03/30 05:12:47;;;;;;;16.93;6.70;;;13.70;99.90;;;;;;5048722;28;20200;-84
2023/03/30 05:15:13;;;;;;;9.97;5.23;;;13.70;99.90;;;;;;5049061;28;20204;-85
2023/03/30 05:17:39;;;;;;;10.03;4.70;;;13.60;99.90;;;;;;5049955;28;20203;-87
2023/03/30 05:20:09;;;;;;;14.33;4.63;;;13.50;99.90;;;;;;5050336;28;20180;-84
2023/03/30 05:22:35;;;;;;;13.50;5.93;;;13.50;99.90;;;;;;5064396;28;20262;-83
2023/03/30 05:25:02;;;;;;;9.30;4.90;;;13.50;99.90;;;;;;5049414;28;20177;-83
2023/03/30 05:27:27;;;;;;;11.83;4.97;;;13.50;99.90;;;;;;5036784;28;20179;-85
2023/03/30 05:29:54;;;;;;;11.70;5.47;;;13.30;99.90;;;;;;5035982;28;20928;-86
2023/03/30 05:32:20;;;;;;;14.33;7.47;;;13.20;99.90;;;;;;5037185;28;20213;-84
2023/03/30 05:34:46;;;;;;;14.60;7.17;;;13.30;99.90;;;;;;5036501;28;20212;-86
2023/03/30 05:37:12;;;;;;;12.33;5.53;;;13.40;99.90;;;;;;5035821;28;20179;-83
2023/03/30 05:39:38;;;;;;;8.67;5.33;;;13.40;99.90;;;;;;5032531;28;20185;-85
2023/03/30 05:42:04;;;;;;;16.50;5.77;;;13.30;99.90;;;;;;5038423;28;20212;-84
2023/03/30 05:44:30;;;;;;;12.70;6.13;;;13.30;99.90;;;;;;5050760;28;20186;-87
2023/03/30 05:46:56;;;;;;;14.37;8.37;;;13.30;99.90;;;;;;5028690;28;20432;-85
2023/03/30 05:49:21;;;;;;;12.80;8.83;;;13.40;99.90;;;;;;5041696;28;20533;-86
2023/03/30 05:51:47;;;;;;;9.97;5.23;;;13.40;99.90;;;;;;5032918;28;20208;-82
2023/03/30 05:54:13;;;;;;;12.37;6.27;;;13.30;99.90;;;;;;5064952;28;20832;-84
2023/03/30 05:56:41;;;;;;;13.43;5.90;;;13.30;99.90;;;;;;5063012;28;20187;-85
2023/03/30 05:59:07;;;;;;;14.30;6.60;;;13.30;99.90;;;;;;5057877;28;20185;-85
2023/03/30 06:01:33;;;;;;;15.47;6.17;;;13.30;99.90;;;;;;5047780;28;20232;-84
2023/03/30 06:03:59;;;;;;;13.97;5.83;;;13.30;99.90;;;;;;5044780;28;20192;-85
2023/03/30 06:06:26;;;;;;;12.13;5.33;;;13.20;99.90;;;;;;5045083;28;20181;-85
2023/03/30 06:08:52;;;;;;;10.73;5.50;;;13.10;99.90;;;;;;5045555;28;20469;-86
2023/03/30 06:11:18;;;;;;;12.10;5.53;;;13.20;99.90;;;;;;5028338;28;20510;-84
2023/03/30 06:13:44;;;;;;;16.03;6.00;;;13.10;99.90;;;;;;5046813;28;20203;-80
2023/03/30 06:16:10;;;;;;;10.50;5.33;;;13.20;99.90;;;;;;5046440;28;20240;-83
2023/03/30 06:18:35;;;;;;;11.83;6.17;;;13.10;99.90;;;;;;5046845;28;20189;-83
2023/03/30 06:21:05;;;;;;;8.90;5.17;;;13.10;99.90;;;;;;5045693;28;20184;-84
2023/03/30 06:23:36;;;;;;;14.03;5.87;;;13.00;99.90;;;;;;5045243;28;20220;-84
2023/03/30 06:26:02;;;;;;;11.60;5.37;;;12.90;99.90;;;;;;5045850;28;20177;-84
2023/03/30 06:28:28;;;;;;;8.97;5.40;;;12.90;99.90;;;;;;5044992;28;20221;-82
2023/03/30 06:30:54;;;;;;;11.60;5.53;;;12.90;99.90;;;;;;5047527;28;20174;-85
2023/03/30 06:33:20;;;;;;;10.53;5.03;;;12.80;99.90;;;;;;5046342;28;20203;-83
2023/03/30 06:35:50;;;;;;;10.80;5.27;;;12.90;99.90;;;;;;5040422;28;20180;-83
2023/03/30 06:38:17;;;;;;;10.40;5.87;;;12.80;99.90;;;;;;5037404;28;20189;-85
2023/03/30 06:40:42;;;;;;;10.63;5.27;;;12.80;99.90;;;;;;5035381;28;20182;-85
2023/03/30 06:43:17;;;;;;;8.93;5.43;;;12.80;99.90;;;;;;5036078;28;20231;-87
2023/03/30 06:45:48;;;;;;;11.10;5.80;;;12.90;99.90;;;;;;5034804;28;20281;-85
2023/03/30 06:48:13;;;;;;;8.53;5.73;;;12.90;99.90;;;;;;5034456;28;20176;-84
2023/03/30 06:50:39;;;;;;;14.03;6.33;;;12.80;99.90;;;;;;5033586;28;20210;-86
2023/03/30 06:53:05;;;;;;;13.57;5.70;;;12.70;99.90;;;;;;5035654;28;20292;-86
2023/03/30 06:55:31;;;;;;;14.13;5.87;;;12.70;99.90;;;;;;5033339;28;20200;-85
2023/03/30 06:57:57;;;;;;;13.20;6.23;;;12.60;99.90;;;;;;5033387;28;20207;-87
2023/03/30 07:00:23;;;;;;;10.83;6.30;;;12.50;99.90;;;;;;5038381;28;20195;-85
2023/03/30 07:02:48;;;;;;;7.90;5.30;;;12.60;99.90;;;;;;5037721;28;20220;-87
2023/03/30 07:05:14;;;;;;;11.27;5.80;;;12.60;99.90;;;;;;5034627;28;20195;-85
2023/03/30 07:07:40;;;;;;;17.80;5.83;;;12.50;99.90;;;;;;5037978;28;20191;-88
2023/03/30 07:10:09;;;;;;;10.77;6.17;;;12.40;99.90;;;;;;5038641;28;20191;-88
2023/03/30 07:12:38;;;;;;;14.00;6.10;;;12.40;99.90;;;;;;5038030;28;20219;-85
2023/03/30 07:15:08;;;;;;;11.43;6.13;;;12.50;99.90;;;;;;5036580;28;20209;-86
2023/03/30 07:17:34;;;;;;;11.87;6.57;;;12.50;99.90;;;;;;5039823;28;20199;-84
2023/03/30 07:20:00;;;;;;;12.33;6.53;;;12.40;99.90;;;;;;5022050;28;20195;-85
2023/03/30 07:22:26;;;;;;;13.03;6.50;;;12.50;99.90;;;;;;5037106;28;20215;-87
2023/03/30 07:24:52;;;;;;;10.73;5.77;;;12.50;99.90;;;;;;5040123;28;20195;-84
2023/03/30 07:27:18;;;;;;;12.50;6.57;;;12.40;99.90;;;;;;5038008;28;20627;-89
2023/03/30 07:29:43;;;;;;;12.87;6.67;;;12.40;99.90;;;;;;5039705;28;20208;-83
2023/03/30 07:32:09;;;;;;;10.47;6.07;;;12.40;99.90;;;;;;5043635;28;20206;-86
2023/03/30 07:34:35;;;;;;;12.20;6.40;;;12.50;99.90;;;;;;5043443;28;20212;-84
2023/03/30 07:37:00;;;;;;;15.07;6.63;;;12.60;99.90;;;;;;5058702;28;20629;-85
2023/03/30 07:39:27;;;;;;;12.40;6.33;;;12.60;99.90;;;;;;5045054;28;20482;-86
2023/03/30 07:41:53;;;;;;;13.47;7.40;;;12.50;99.90;;;;;;5042862;28;20216;-85
2023/03/30 07:44:19;;;;;;;15.33;6.97;;;12.50;99.90;;;;;;5042052;28;20207;-86
2023/03/30 07:46:45;;;;;;;13.83;7.00;;;12.50;99.90;;;;;;5042831;28;20227;-84
2023/03/30 07:49:11;;;;;;;15.90;7.27;;;12.40;99.90;;;;;;5050154;28;20193;-87
2023/03/30 07:51:38;;;;;;;15.77;6.20;;;12.40;99.90;;;;;;5062032;28;20169;-87
2023/03/30 07:54:04;;;;;;;10.93;6.80;;;12.40;99.90;;;;;;5043051;28;20198;-88
2023/03/30 07:56:32;;;;;;;9.50;6.40;;;12.30;99.90;;;;;;5025317;28;20258;-85
2023/03/30 07:58:57;;;;;;;11.40;6.20;;;12.30;99.90;;;;;;5044675;28;20190;-84
2023/03/30 08:01:24;;;;;;;8.50;6.20;;;12.30;99.90;;;;;;5045031;28;20177;-84
2023/03/30 08:03:50;;;;;;;9.50;5.90;;;12.30;99.90;;;;;;5046360;28;20178;-86
2023/03/30 08:06:15;;;;;;;8.70;6.00;;;12.30;99.90;;;;;;5045779;28;20205;-85
2023/03/30 08:08:42;;;;;;;11.13;6.17;;;12.30;99.90;;;;;;5049194;28;20183;-84
2023/03/30 08:11:09;;;;;;;7.63;5.80;;;12.40;99.90;;;;;;5048712;28;20193;-86
2023/03/30 08:13:36;;;;;;;9.80;5.93;;;12.40;99.90;;;;;;5048505;28;20226;-85
2023/03/30 08:16:02;;;;;;;12.97;6.50;;;12.50;99.90;;;;;;5048232;28;20237;-84
2023/03/30 08:18:28;;;;;;;10.53;5.77;;;12.40;99.90;;;;;;5049347;28;20178;-85
2023/03/30 08:20:54;;;;;;;9.07;5.43;;;12.50;99.90;;;;;;5049282;28;20184;-84
2023/03/30 08:23:21;;;;;;;11.57;5.43;;;12.60;99.90;;;;;;5049079;28;20203;-84
2023/03/30 08:25:51;;;;;;;11.70;5.57;;;12.70;99.90;;;;;;5048557;28;20190;-86
2023/03/30 08:28:20;;;;;;;11.70;5.23;;;12.70;99.90;;;;;;5049959;28;20183;-84
2023/03/30 08:30:46;;;;;;;9.27;5.37;;;12.80;99.90;;;;;;5055149;28;20692;-84
2023/03/30 08:33:13;;;;;;;8.47;4.97;;;12.80;99.90;;;;;;5061258;28;20272;-86
2023/03/30 08:35:39;;;;;;;8.70;5.57;;;12.90;99.90;;;;;;5049841;28;20222;-85
2023/03/30 08:38:05;;;;;;;9.90;4.50;;;12.90;99.90;;;;;;5049261;28;20809;-87
2023/03/30 08:40:31;;;;;;;6.30;5.03;;;13.10;99.90;;;;;;5056831;28;20208;-90
2023/03/30 08:43:15;;;;;;;5.50;4.57;;;13.30;99.90;;;;;;5057888;28;20200;-87
2023/03/30 08:45:42;;;;;;;8.90;5.47;;;13.30;99.90;;;;;;5057792;28;20177;-84
2023/03/30 08:48:23;;;;;;;7.03;4.70;;;13.40;99.90;;;;;;5048126;28;20185;-85
2023/03/30 08:50:53;;;;;;;6.40;4.70;;;13.60;99.90;;;;;;5046543;28;20218;-87
2023/03/30 08:53:19;;;;;;;7.33;4.50;;;13.60;99.90;;;;;;5046945;28;20207;-85
2023/03/30 08:55:48;;;;;;;8.83;4.53;;;13.60;99.90;;;;;;5046572;28;20205;-86
2023/03/30 08:58:33;;;;;;;7.83;5.13;;;13.80;99.90;;;;;;5046686;28;20312;-86
2023/03/30 09:01:24;;;;;;;7.63;4.70;;;13.80;99.90;;;;;;5030085;28;20184;-86
2023/03/30 09:04:08;;;;;;;6.20;4.20;;;13.70;99.90;;;;;;5010648;28;20197;-85
2023/03/30 09:06:40;;;;;;;6.80;4.23;;;13.90;99.90;;;;;;5047462;28;20221;-84
2023/03/30 09:09:11;;;;;;;8.03;4.53;;;13.80;99.90;;;;;;5029105;28;20166;-85
2023/03/30 09:11:38;;;;;;;9.40;4.63;;;13.90;99.90;;;;;;5047476;28;20208;-86
2023/03/30 09:14:06;;;;;;;6.67;5.20;;;13.90;99.90;;;;;;5047126;28;20240;-86
2023/03/30 09:16:32;;;;;;;7.27;4.83;;;13.90;99.90;;;;;;5046572;28;20205;-88
2023/03/30 09:19:00;;;;;;;8.00;5.30;;;13.70;99.90;;;;;;5045092;28;20193;-86
2023/03/30 09:21:29;;;;;;;10.50;4.90;;;13.70;99.90;;;;;;5046222;28;20180;-86
2023/03/30 09:23:57;;;;;;;5.93;4.50;;;13.70;99.90;;;;;;5047003;28;20196;-84
2023/03/30 09:26:28;;;;;;;6.57;4.50;;;13.60;99.90;;;;;;5048111;28;20203;-86
2023/03/30 09:29:09;;;;;;;7.53;4.63;;;13.50;99.90;;;;;;5067115;28;20198;-85
2023/03/30 09:31:40;;;;;;;7.20;4.80;;;13.40;99.90;;;;;;5050631;28;20208;-87
2023/03/30 09:34:26;;;;;;;6.80;4.63;;;13.40;99.90;;;;;;5046651;28;20227;-87
2023/03/30 09:37:04;;;;;;;10.27;5.10;;;13.30;99.90;;;;;;5046025;28;20180;-84
2023/03/30 09:39:32;;;;;;;6.47;5.07;;;13.10;99.90;;;;;;5047859;28;20201;-84
2023/03/30 09:42:18;;;;;;;6.67;4.87;;;13.10;99.90;;;;;;5046849;28;20191;-86
2023/03/30 09:44:55;;;;;;;9.47;5.10;;;13.00;99.90;;;;;;5047932;28;20179;-86
2023/03/30 09:47:38;;;;;;;7.40;5.37;;;13.00;99.90;;;;;;5046296;28;20244;-85
2023/03/30 09:50:11;;;;;;;10.33;5.03;;;13.00;99.90;;;;;;5035800;28;20184;-86
2023/03/30 09:52:40;;;;;;;9.20;5.50;;;13.00;99.90;;;;;;5029439;28;20207;-85
2023/03/30 09:55:21;;;;;;;9.40;5.20;;;13.00;99.90;;;;;;5046699;28;20207;-87
2023/03/30 09:57:51;;;;;;;9.03;4.80;;;13.10;99.90;;;;;;5030239;28;20188;-86
2023/03/30 10:00:31;;;;;;;7.93;4.80;;;13.20;99.90;;;;;;5048118;28;20229;-85
2023/03/30 10:03:03;;;;;;;6.00;4.57;;;13.30;99.90;;;;;;5047821;28;20195;-84
2023/03/30 10:05:33;;;;;;;6.47;4.80;;;13.40;99.90;;;;;;5048355;28;20173;-84
2023/03/30 10:08:02;;;;;;;8.10;4.57;;;13.50;99.90;;;;;;5047425;28;20183;-83
2023/03/30 10:10:37;;;;;;;7.77;4.53;;;13.40;99.90;;;;;;5047475;28;20189;-84
2023/03/30 10:13:13;;;;;;;8.57;4.60;;;13.60;99.90;;;;;;5047356;28;20203;-85
2023/03/30 10:15:43;;;;;;;12.73;5.13;;;13.60;99.90;;;;;;5047219;28;20200;-86
2023/03/30 10:18:18;;;;;;;7.30;4.20;;;13.70;99.90;;;;;;5048247;28;20200;-86
2023/03/30 10:20:51;;;;;;;6.47;4.20;;;13.70;99.90;;;;;;5046871;28;20212;-86
2023/03/30 10:23:18;;;;;;;5.67;4.43;;;14.00;99.90;;;;;;5046765;28;20201;-84
2023/03/30 10:25:48;;;;;;;8.97;4.93;;;14.00;99.90;;;;;;5052598;28;20187;-84
2023/03/30 10:28:25;;;;;;;6.03;4.37;;;14.10;99.90;;;;;;5046589;28;20197;-85
2023/03/30 10:30:55;;;;;;;9.93;4.67;;;14.20;99.90;;;;;;5046722;28;20175;-84
2023/03/30 10:33:23;;;;;;;5.83;4.30;;;14.30;99.90;;;;;;5046140;28;20237;-86
2023/03/30 10:35:52;;;;;;;9.23;4.90;;;14.50;99.90;;;;;;5046147;28;20184;-84
2023/03/30 10:38:19;;;;;;;9.93;4.77;;;14.60;99.90;;;;;;5047668;28;20174;-86
2023/03/30 10:40:46;;;;;;;7.63;4.23;;;14.70;99.90;;;;;;5029853;28;20177;-85
2023/03/30 10:43:18;;;;;;;6.57;4.83;;;14.60;99.90;;;;;;5045595;28;20270;-83
2023/03/30 10:45:47;;;;;;;7.33;4.83;;;14.50;99.90;;;;;;5047278;28;20170;-90
2023/03/30 10:48:29;;;;;;;7.83;4.93;;;14.60;99.90;;;;;;5046393;28;20699;-84
2023/03/30 10:51:00;;;;;;;10.73;4.97;;;14.70;99.90;;;;;;5045176;28;20197;-88
2023/03/30 10:53:44;;;;;;;7.83;4.43;;;14.60;99.90;;;;;;5048480;28;20205;-88
2023/03/30 10:56:19;;;;;;;10.00;4.83;;;14.60;99.90;;;;;;5048161;28;20171;-85
2023/03/30 10:59:09;;;;;;;7.70;4.80;;;14.70;99.90;;;;;;5046828;28;20240;-86
2023/03/30 11:01:47;;;;;;;8.63;4.80;;;14.60;99.90;;;;;;5048442;28;20167;-83
2023/03/30 11:04:45;;;;;;;8.43;4.67;;;14.60;99.90;;;;;;5039272;28;20206;-87
2023/03/30 11:07:34;;;;;;;5.63;4.30;;;14.50;99.90;;;;;;5042381;28;20178;-88
2023/03/30 11:10:30;;;;;;;8.87;4.97;;;14.60;99.90;;;;;;5049292;28;20213;-83
2023/03/30 11:13:06;;;;;;;7.73;4.77;;;14.60;99.90;;;;;;5038461;28;20270;-86
2023/03/30 11:15:44;;;;;;;7.47;4.60;;;14.70;99.90;;;;;;5038073;28;20297;-86
2023/03/30 11:18:22;;;;;;;6.30;4.57;;;14.90;99.90;;;;;;5038512;28;20205;-85
2023/03/30 11:20:58;;;;;;;6.83;5.10;;;15.20;99.90;;;;;;5041673;28;20277;-86
2023/03/30 11:23:48;;;;;;;10.10;5.37;;;15.50;99.90;;;;;;5041751;28;20600;-85
2023/03/30 11:26:23;;;;;;;5.77;4.47;;;15.70;99.90;;;;;;5041669;28;20198;-85
2023/03/30 11:29:07;;;;;;;5.63;4.40;;;15.90;95.40;;;;;;5039312;28;20196;-83
2023/03/30 11:31:43;;;;;;;6.57;4.63;;;15.60;98.40;;;;;;5040213;28;20222;-84
2023/03/30 11:34:20;;;;;;;7.77;4.93;;;15.50;97.20;;;;;;5037994;28;20222;-84
2023/03/30 11:37:11;;;;;;;7.27;4.87;;;15.20;97.00;;;;;;5038302;28;20192;-87
2023/03/30 11:39:45;;;;;;;6.90;5.20;;;15.40;99.50;;;;;;5035943;28;21512;-85
2023/03/30 11:42:22;;;;;;;7.87;5.07;;;15.20;98.10;;;;;;5042992;28;20205;-87
2023/03/30 11:44:50;;;;;;;12.87;5.97;;;15.40;99.20;;;;;;5043749;28;20168;-89
2023/03/30 11:47:53;;;;;;;6.60;4.77;;;15.70;99.70;;;;;;5042556;28;20173;-84
2023/03/30 11:50:39;;;;;;;7.57;4.83;;;15.80;96.00;;;;;;5039736;28;20196;-84
2023/03/30 11:53:17;;;;;;;6.87;5.17;;;16.20;97.80;;;;;;5041080;28;20225;-85
2023/03/30 11:56:05;;;;;;;9.33;5.27;;;16.50;92.40;;;;;;5026063;28;20917;-85
2023/03/30 11:58:44;;;;;;;8.93;5.50;;;16.50;90.60;;;;;;5042658;28;20219;-85
2023/03/30 12:01:16;;;;;;;11.07;4.90;;;16.10;91.50;;;;;;5042489;28;20167;-83
2023/03/30 12:03:45;;;;;;;7.77;4.97;;;16.10;94.70;;;;;;5028445;28;20208;-88
2023/03/30 12:06:28;;;;;;;6.97;5.00;;;16.20;96.30;;;;;;5043907;28;20592;-86
2023/03/30 12:09:12;;;;;;;9.00;5.77;;;15.90;94.60;;;;;;5042640;28;20163;-84
2023/03/30 12:11:54;;;;;;;8.33;5.30;;;15.80;98.70;;;;;;5024481;28;20177;-86
2023/03/30 12:14:31;;;;;;;8.77;5.57;;;15.50;99.90;;;;;;5022020;28;20214;-87
2023/03/30 12:17:05;;;;;;;8.70;5.47;;;15.20;99.90;;;;;;5043895;28;20188;-84
2023/03/30 12:19:45;;;;;;;9.83;5.63;;;15.10;99.90;;;;;;5042807;28;20293;-82
2023/03/30 12:22:29;;;;;;;8.43;5.43;;;15.10;99.90;;;;;;5043928;28;20215;-85
2023/03/30 12:25:26;;;;;;;8.07;5.90;;;15.20;99.90;;;;;;5040655;28;20187;-85
2023/03/30 12:28:14;;;;;;;8.97;5.60;;;15.20;99.90;;;;;;5010845;28;20268;-88
2023/03/30 12:30:44;;;;;;;8.93;5.77;;;15.30;99.90;;;;;;5041862;28;20248;-87
2023/03/30 12:33:17;;;;;;;8.17;5.37;;;15.30;99.90;;;;;;5039303;28;20209;-85
2023/03/30 12:35:48;;;;;;;6.83;5.37;;;15.20;99.90;;;;;;5039842;28;20322;-85
2023/03/30 12:38:16;;;;;;;5.67;4.80;;;15.00;99.90;;;;;;5040973;28;20166;-86
2023/03/30 12:40:45;;;;;;;8.53;4.40;;;14.90;99.90;;;;;;5040604;28;20177;-85
2023/03/30 12:43:31;;;;;;;9.87;5.07;;;14.60;99.50;;;;;;5037317;28;20222;-84
2023/03/30 12:46:30;;;;;;;8.10;5.27;;;14.40;99.90;;;;;;5037269;28;20192;-84
2023/03/30 12:49:20;;;;;;;5.77;4.63;;;14.10;99.90;;;;;;5038776;28;20170;-84
2023/03/30 12:52:08;;;;;;;4.33;3.13;;;14.10;96.80;;;;;;5039636;28;20235;-82
2023/03/30 12:54:58;;;;;;;4.23;3.80;;;14.20;95.10;;;;;;5040212;28;20208;-87
2023/03/30 12:57:38;;;;;;;6.13;4.10;;;14.20;96.00;;;;;;5043419;28;20173;-86
2023/03/30 13:00:25;;;;;;;6.60;4.63;;;14.20;98.00;;;;;;5040570;28;20183;-80
2023/03/30 13:02:59;;;;;;;8.50;5.27;;;14.20;99.90;;;;;;5041372;28;20198;-86
2023/03/30 13:05:33;;;;;;;6.87;4.60;;;14.30;99.90;;;;;;5042120;28;20566;-82
2023/03/30 13:08:05;;;;;;;6.03;4.40;;;14.30;99.90;;;;;;5039085;28;20194;-87